Aérodrome :
LOGIN :

S'inscrire | Disclaimer

   EN    FR    IT 

 










Légende :    VFR   VFR Marginal   IFR   IFR Intensif   IFR Très Intensif
Visi : 
Plafond : 
>= 8 km
>= 3000ft
5 à 8 km
1000 à 3000 ft
1500m à 5 km
500 à 1000 ft
800 à 1500m
200 à 500 ft
< 800m
< 200 ft
Symboles :   Orages  Brouillard  Fortes neiges  Fortes précipitations  Vent > 20 kt
SIGMETs :   Divers  Orages  Givrage  Turbulence  Onde Orograph.  Cendres Volcan.







- Altitude de l'aérodrome : 274 ft
- Code IATA : PUY


LDPL - Pula

DERNIER METAR :
  • 142100Z 34006KT 290V020 9999 RA SCT015 BKN040 BKN055 19/18 Q1014 RETS BECMG NSW

METARs EXPIRÉS :
  • 142030Z 35009KT 9999 TS FEW015CB SCT035 BKN058 22/18 Q1013 NOSIG
  • 142000Z 07008KT 9999 FEW015 SCT035 BKN058 22/18 Q1013 NOSIG
  • 141930Z 07008KT 9999 FEW020 SCT055 22/18 Q1012 NOSIG
  • 141900Z 07006KT 9999 FEW020 SCT055 22/18 Q1013 NOSIG
  • 141830Z 06007KT 9999 FEW020 22/18 Q1012 NOSIG

TAF TAF LDPL
Valide du 14 à 18h jusqu'au 15 à 18h UTC


141725Z 1418/1518 06012KT 9999 FEW030 TX28/1513Z TN20/1503Z
PROB30
TEMPO 1418/1500 TSRA FEW030CB
Pas de NOTAMs connus pour ce terrain.
2 SIGMETs publiés pour la FIR Zagreb (LDZO) :
 
Orages noyés dans la masse
LDZO SIGMET 12 VALID 142000/142300 LDZA
LDZO ZAGREB FIR EMBD TS OBS W OF LINE N4329 E01431 - N4528 E01412 TOP FL380 STNR NC=
Orages noyés dans la masse
LDZO SIGMET 11 VALID 141942/142300 LDZA
LDZO ZAGREB FIR EMBD TS OBS SE OF LINE N4221 E01620 - N4252 E01739 TOP FL400 STNR NC=



MET'MAP, la Météo Aéronautique d'un coup d'oeil ! - Copyright ORBIFLY Décembre 2007 - Disclaimer

ORBIFLY MET'MAP TEAM :

Programmation & Développement : Alexandra Zaïnal
Conception & Développement : Baudouin d'Aumeries
Co-Programmation & Développement : Marc-Olivier Méhu
Soutien technique & logistique : Manuel Goepfert

Contact : metmap@orbifly.com




SOURCES & CREDITS :

   NOAA